createdAt,value
2022-11-17T00:00:42.121Z,10.25
2022-11-17T00:03:15.839Z,11.20
2022-11-17T00:05:44.331Z,10.68
2022-11-17T00:08:12.332Z,11.88
2022-11-17T00:10:39.808Z,12.83
2022-11-17T00:13:28.825Z,13.18
2022-11-17T00:15:56.690Z,12.45
2022-11-17T00:18:42.413Z,14.20
2022-11-17T00:21:21.666Z,13.55
2022-11-17T00:23:50.550Z,13.07
2022-11-17T00:26:21.028Z,12.57
2022-11-17T00:28:59.672Z,11.85
2022-11-17T00:31:48.005Z,12.65
2022-11-17T00:34:20.988Z,12.48
2022-11-17T00:36:51.324Z,11.33
2022-11-17T00:39:20.761Z,13.15
2022-11-17T00:41:48.470Z,12.32
2022-11-17T00:44:16.388Z,12.50
2022-11-17T00:46:44.021Z,13.02
2022-11-17T00:49:11.991Z,11.90
2022-11-17T00:51:39.828Z,12.27
2022-11-17T00:54:09.866Z,13.05
2022-11-17T00:56:37.676Z,11.73
2022-11-17T00:59:05.983Z,11.23
2022-11-17T01:01:33.673Z,11.53
2022-11-17T01:04:04.747Z,11.65
2022-11-17T01:06:35.881Z,10.88
2022-11-17T01:09:07.370Z,10.85
2022-11-17T01:11:35.164Z,11.68
2022-11-17T01:14:02.751Z,11.10
2022-11-17T01:16:31.068Z,10.85
2022-11-17T01:19:01.295Z,10.80
2022-11-17T01:21:29.634Z,11.18
2022-11-17T01:23:58.736Z,12.90
2022-11-17T01:26:34.539Z,12.33
2022-11-17T01:29:03.585Z,14.87
2022-11-17T01:31:36.809Z,13.93
2022-11-17T01:34:08.410Z,13.95
2022-11-17T01:36:56.581Z,15.38
2022-11-17T01:39:25.556Z,14.73
2022-11-17T01:41:54.257Z,16.58
2022-11-17T01:44:55.526Z,16.55
2022-11-17T01:47:28.623Z,13.70
2022-11-17T01:50:16.706Z,15.82
2022-11-17T01:52:44.781Z,14.27
2022-11-17T01:55:12.637Z,15.27
2022-11-17T01:57:50.271Z,15.40
2022-11-17T02:00:18.296Z,14.93
2022-11-17T02:02:46.624Z,14.20
2022-11-17T02:05:33.057Z,14.60
2022-11-17T02:08:02.371Z,14.05
2022-11-17T02:10:31.065Z,14.32
2022-11-17T02:13:00.247Z,13.45
2022-11-17T02:15:31.643Z,13.40
2022-11-17T02:17:59.612Z,14.13
2022-11-17T02:20:51.810Z,12.20
2022-11-17T02:23:19.462Z,12.70
2022-11-17T02:26:08.544Z,12.63
2022-11-17T02:28:37.853Z,12.93
2022-11-17T02:31:53.076Z,13.63
2022-11-17T02:34:36.135Z,12.45
2022-11-17T02:37:11.816Z,12.77
2022-11-17T02:40:11.405Z,12.70
2022-11-17T02:43:00.412Z,12.95
2022-11-17T02:45:33.885Z,13.53
2022-11-17T02:48:02.425Z,15.82
2022-11-17T02:50:30.846Z,14.32
2022-11-17T02:52:58.431Z,14.25
2022-11-17T02:55:27.688Z,13.65
2022-11-17T02:57:55.403Z,11.83
2022-11-17T03:00:23.021Z,12.85
2022-11-17T03:02:53.505Z,12.52
2022-11-17T03:05:33.626Z,14.93
2022-11-17T03:08:33.193Z,14.45
2022-11-17T03:11:03.436Z,15.37
2022-11-17T03:13:50.586Z,16.17
2022-11-17T03:16:31.534Z,16.98
2022-11-17T03:19:19.512Z,15.45
2022-11-17T03:22:11.092Z,16.02
2022-11-17T03:24:49.934Z,16.80
2022-11-17T03:27:24.821Z,17.77
2022-11-17T03:29:57.817Z,17.15
2022-11-17T03:32:27.344Z,17.87
2022-11-17T03:35:00.317Z,16.77
2022-11-17T03:37:31.735Z,16.83
2022-11-17T03:40:03.814Z,17.05
2022-11-17T03:42:34.435Z,17.45
2022-11-17T03:45:04.915Z,16.87
2022-11-17T03:47:33.792Z,17.20
2022-11-17T03:50:25.470Z,15.30
2022-11-17T03:52:53.639Z,17.15
2022-11-17T03:55:23.059Z,16.20
2022-11-17T03:57:56.398Z,16.92
2022-11-17T04:00:24.173Z,17.33
2022-11-17T04:02:55.953Z,17.73
2022-11-17T04:05:23.414Z,16.55
2022-11-17T04:07:51.152Z,16.52
2022-11-17T04:10:20.773Z,15.75
2022-11-17T04:13:07.724Z,15.75
2022-11-17T04:15:54.324Z,15.37
2022-11-17T04:18:22.565Z,16.20
2022-11-17T04:20:51.638Z,16.20
2022-11-17T04:23:19.146Z,15.07
2022-11-17T04:26:09.361Z,15.90
2022-11-17T04:28:40.403Z,15.33
2022-11-17T04:31:14.079Z,16.12
2022-11-17T04:34:03.370Z,17.60
2022-11-17T04:36:34.929Z,15.57
2022-11-17T04:39:02.894Z,16.60
2022-11-17T04:41:49.204Z,15.70
2022-11-17T04:44:17.887Z,16.25
2022-11-17T04:46:48.521Z,16.33
2022-11-17T04:49:17.614Z,15.60
2022-11-17T04:51:45.664Z,15.23
2022-11-17T04:54:14.955Z,14.90
2022-11-17T04:56:42.619Z,15.90
2022-11-17T04:59:10.697Z,15.20
2022-11-17T05:01:38.759Z,14.43
2022-11-17T05:04:10.766Z,13.57
2022-11-17T05:06:43.804Z,14.83
2022-11-17T05:09:16.553Z,15.88
2022-11-17T05:12:03.127Z,14.25
2022-11-17T05:14:30.680Z,15.23
2022-11-17T05:17:10.978Z,15.23
2022-11-17T05:19:40.384Z,14.90
2022-11-17T05:22:27.928Z,14.85
2022-11-17T05:24:56.035Z,13.32
2022-11-17T05:27:24.098Z,13.52
2022-11-17T05:29:51.669Z,13.93
2022-11-17T05:32:19.254Z,12.90
2022-11-17T05:34:47.008Z,13.07
2022-11-17T05:37:14.554Z,13.30
2022-11-17T05:39:42.312Z,14.02
2022-11-17T05:42:10.179Z,12.57
2022-11-17T05:44:37.690Z,13.97
2022-11-17T05:47:05.245Z,13.75
2022-11-17T05:49:33.052Z,14.98
2022-11-17T05:52:00.538Z,13.43
2022-11-17T05:54:27.968Z,15.68
2022-11-17T05:57:00.187Z,14.87
2022-11-17T05:59:39.259Z,15.43
2022-11-17T06:02:20.315Z,14.50
2022-11-17T06:04:49.465Z,12.85
2022-11-17T06:07:18.312Z,14.87
2022-11-17T06:09:46.017Z,14.13
2022-11-17T06:12:15.288Z,13.23
2022-11-17T06:14:43.155Z,13.85
2022-11-17T06:17:42.285Z,13.27
2022-11-17T06:20:25.247Z,12.35
2022-11-17T06:22:52.823Z,12.37
2022-11-17T06:25:20.872Z,12.50
2022-11-17T06:27:49.526Z,12.88
2022-11-17T06:30:17.466Z,13.23
2022-11-17T06:32:45.677Z,12.45
2022-11-17T06:35:16.426Z,15.23
2022-11-17T06:37:44.188Z,19.12
2022-11-17T06:40:13.468Z,15.13
2022-11-17T06:42:59.597Z,25.67
2022-11-17T06:45:27.503Z,10.68
2022-11-17T06:47:55.116Z,12.47
2022-11-17T06:50:22.694Z,15.73
2022-11-17T06:52:50.741Z,16.15
2022-11-17T06:55:18.711Z,11.02
2022-11-17T06:57:51.897Z,14.55
2022-11-17T07:00:21.257Z,12.63
2022-11-17T07:02:48.711Z,13.13
2022-11-17T07:05:16.365Z,12.73
2022-11-17T07:07:44.260Z,29.80
2022-11-17T07:10:11.788Z,13.25
2022-11-17T07:12:39.512Z,17.80
2022-11-17T07:15:07.801Z,15.23
2022-11-17T07:17:35.444Z,14.43
2022-11-17T07:20:04.217Z,11.85
2022-11-17T07:22:32.217Z,35.13
2022-11-17T07:24:59.737Z,22.73
2022-11-17T07:27:27.438Z,25.05
2022-11-17T07:37:27.233Z,15.02
2022-11-17T07:39:55.103Z,17.67
2022-11-17T07:42:22.738Z,11.27
2022-11-17T07:44:53.133Z,11.12
2022-11-17T07:47:20.878Z,14.50
2022-11-17T07:49:48.681Z,12.50
2022-11-17T07:52:16.368Z,12.33
2022-11-17T07:54:44.366Z,12.20
2022-11-17T07:57:11.956Z,12.25
2022-11-17T07:59:39.720Z,10.55
2022-11-17T08:02:09.555Z,11.43
2022-11-17T08:04:37.393Z,10.87
2022-11-17T08:07:04.871Z,10.32
2022-11-17T08:09:33.729Z,10.07
2022-11-17T08:12:02.506Z,9.80
2022-11-17T08:14:30.440Z,10.07
2022-11-17T08:17:01.345Z,8.43
2022-11-17T08:19:29.255Z,9.15
2022-11-17T08:21:59.081Z,10.18
2022-11-17T08:24:26.566Z,9.35
2022-11-17T08:26:54.706Z,9.65
2022-11-17T08:29:22.389Z,9.53
2022-11-17T08:31:49.845Z,9.50
2022-11-17T08:34:17.761Z,9.82
2022-11-17T08:36:45.331Z,10.02
2022-11-17T08:39:13.223Z,10.05
2022-11-17T08:41:40.977Z,10.43
2022-11-17T08:44:09.022Z,9.10
2022-11-17T08:46:36.558Z,9.63
2022-11-17T08:49:04.519Z,10.05
2022-11-17T08:51:34.840Z,10.43
2022-11-17T08:54:02.329Z,10.33
2022-11-17T08:56:30.067Z,9.55
2022-11-17T08:58:57.765Z,9.02
2022-11-17T09:01:25.616Z,8.20
2022-11-17T09:03:53.571Z,8.77
2022-11-17T09:06:21.723Z,8.43
2022-11-17T09:08:50.633Z,9.50
2022-11-17T09:11:18.635Z,8.30
2022-11-17T09:13:47.081Z,8.70
2022-11-17T09:16:16.223Z,8.52
2022-11-17T09:18:44.377Z,8.43
2022-11-17T09:21:15.630Z,7.37
2022-11-17T09:23:44.771Z,8.60
2022-11-17T09:26:15.539Z,9.35
2022-11-17T09:28:44.215Z,7.80
2022-11-17T09:31:17.541Z,8.47
2022-11-17T09:33:45.804Z,8.15
2022-11-17T09:36:15.225Z,8.30
2022-11-17T09:38:43.634Z,7.43
2022-11-17T09:41:18.329Z,7.05
2022-11-17T09:44:23.769Z,7.17
2022-11-17T09:46:57.271Z,7.80
2022-11-17T09:49:53.636Z,8.93
2022-11-17T09:52:37.257Z,10.75
2022-11-17T09:55:13.993Z,8.50
2022-11-17T09:57:44.366Z,8.07
2022-11-17T10:00:15.486Z,7.18
2022-11-17T10:02:43.930Z,8.32
2022-11-17T10:05:33.481Z,8.35
2022-11-17T10:08:08.321Z,8.70
2022-11-17T10:10:50.742Z,8.07
2022-11-17T10:13:33.096Z,8.48
2022-11-17T10:16:04.309Z,7.50
2022-11-17T10:18:38.104Z,7.05
2022-11-17T10:21:07.364Z,7.28
2022-11-17T10:23:42.767Z,8.03
2022-11-17T10:26:15.437Z,9.10
2022-11-17T10:28:44.613Z,8.27
2022-11-17T10:31:17.524Z,6.90
2022-11-17T10:33:47.820Z,7.00
2022-11-17T10:36:29.036Z,7.10
2022-11-17T10:38:59.687Z,7.25
2022-11-17T10:41:30.566Z,8.32
2022-11-17T10:44:12.116Z,8.48
2022-11-17T10:47:04.260Z,8.52
2022-11-17T10:49:37.994Z,8.37
2022-11-17T10:52:15.157Z,8.98
2022-11-17T10:54:43.603Z,8.90
2022-11-17T10:57:20.674Z,7.12
2022-11-17T10:59:57.108Z,6.90
2022-11-17T11:02:33.749Z,6.80
2022-11-17T11:05:18.240Z,7.15
2022-11-17T11:07:46.286Z,7.12
2022-11-17T11:10:20.380Z,6.35
2022-11-17T11:12:52.614Z,7.60
2022-11-17T11:15:23.537Z,7.80
2022-11-17T11:17:52.376Z,6.65
2022-11-17T11:20:35.939Z,6.82
2022-11-17T11:23:13.166Z,6.32
2022-11-17T11:25:47.204Z,6.93
2022-11-17T11:28:42.674Z,7.00
2022-11-17T11:31:34.327Z,6.40
2022-11-17T11:34:58.185Z,6.62
2022-11-17T11:37:39.544Z,5.65
2022-11-17T11:40:24.904Z,6.30
2022-11-17T11:43:00.713Z,6.70
2022-11-17T11:45:47.074Z,7.32
2022-11-17T11:48:23.262Z,6.80
2022-11-17T11:50:54.817Z,6.60
2022-11-17T11:53:27.194Z,6.47
2022-11-17T11:56:02.302Z,7.00
2022-11-17T11:58:30.086Z,6.82
2022-11-17T12:01:04.940Z,6.78
2022-11-17T12:03:44.009Z,6.90
2022-11-17T12:06:54.411Z,6.20
2022-11-17T12:09:46.277Z,5.07
2022-11-17T12:12:23.338Z,6.22
2022-11-17T12:15:22.203Z,5.82
2022-11-17T12:18:14.973Z,5.53
2022-11-17T12:21:31.244Z,5.90
2022-11-17T12:24:50.057Z,5.60
2022-11-17T12:27:38.480Z,5.43
2022-11-17T12:30:28.982Z,6.53
2022-11-17T12:32:58.769Z,5.15
2022-11-17T12:35:31.278Z,5.45
2022-11-17T12:38:14.018Z,5.60
2022-11-17T12:40:46.587Z,6.80
2022-11-17T12:43:17.313Z,5.65
2022-11-17T12:45:53.624Z,4.75
2022-11-17T12:48:33.844Z,6.47
2022-11-17T12:51:26.750Z,6.10
2022-11-17T12:54:38.353Z,6.12
2022-11-17T12:57:11.052Z,6.87
2022-11-17T12:59:48.383Z,6.07
2022-11-17T13:02:53.249Z,6.03
2022-11-17T13:05:23.370Z,5.80
2022-11-17T13:08:27.986Z,6.10
2022-11-17T13:11:08.013Z,6.78
2022-11-17T13:13:37.154Z,5.65
2022-11-17T13:16:05.793Z,4.95
2022-11-17T13:18:41.463Z,5.87
2022-11-17T13:21:30.869Z,5.43
2022-11-17T13:24:00.683Z,6.12
2022-11-17T13:26:37.599Z,8.00
2022-11-17T13:29:08.136Z,6.55
2022-11-17T13:31:36.110Z,5.90
2022-11-17T13:34:14.523Z,6.10
2022-11-17T13:37:00.572Z,6.03
2022-11-17T13:39:28.742Z,5.70
2022-11-17T13:41:57.953Z,5.72
2022-11-17T13:44:27.673Z,6.17
2022-11-17T13:46:56.235Z,6.15
2022-11-17T13:49:34.855Z,5.60
2022-11-17T13:52:04.030Z,5.93
2022-11-17T13:54:32.080Z,6.75
2022-11-17T13:57:06.919Z,6.43
2022-11-17T13:59:36.668Z,5.70
2022-11-17T14:02:21.223Z,6.70
2022-11-17T14:05:20.040Z,6.35
2022-11-17T14:07:48.056Z,6.68
2022-11-17T14:10:22.376Z,6.57
2022-11-17T14:12:53.686Z,5.72
2022-11-17T14:15:21.580Z,6.30
2022-11-17T14:17:50.923Z,5.85
2022-11-17T14:20:24.570Z,8.02
2022-11-17T14:23:10.668Z,6.83
2022-11-17T14:25:53.272Z,6.32
2022-11-17T14:28:23.666Z,6.25
2022-11-17T14:30:55.092Z,6.07
2022-11-17T14:33:23.640Z,9.60
2022-11-17T14:35:54.754Z,9.63
2022-11-17T14:38:23.102Z,9.48
2022-11-17T14:40:52.452Z,10.52
2022-11-17T14:43:21.143Z,11.02
2022-11-17T14:45:49.825Z,11.02
2022-11-17T14:48:19.279Z,10.40
2022-11-17T14:50:48.318Z,8.85
2022-11-17T14:53:15.787Z,8.70
2022-11-17T14:55:43.507Z,14.57
2022-11-17T14:58:11.106Z,14.32
2022-11-17T15:00:38.768Z,15.20
2022-11-17T15:03:07.702Z,12.88
2022-11-17T15:05:35.419Z,13.68
2022-11-17T15:08:03.312Z,20.27
2022-11-17T15:10:31.150Z,19.58
2022-11-17T15:12:58.659Z,14.57
2022-11-17T15:15:27.143Z,11.07
2022-11-17T15:17:55.041Z,9.13
2022-11-17T15:20:22.626Z,9.38
2022-11-17T15:22:50.340Z,8.85
2022-11-17T15:25:18.144Z,8.70
2022-11-17T15:27:45.656Z,9.77
2022-11-17T15:30:14.105Z,9.77
2022-11-17T15:32:41.967Z,10.55
2022-11-17T15:35:09.549Z,9.73
2022-11-17T15:37:37.097Z,8.77
2022-11-17T15:40:05.552Z,10.23
2022-11-17T15:42:33.101Z,13.75
2022-11-17T15:45:00.568Z,14.60
2022-11-17T15:47:28.421Z,13.80
2022-11-17T15:49:58.616Z,12.67
2022-11-17T15:52:48.640Z,11.57
2022-11-17T15:55:14.020Z,13.60
2022-11-17T15:57:41.576Z,13.35
2022-11-17T16:00:11.897Z,12.50
2022-11-17T16:02:41.488Z,11.07
2022-11-17T16:05:09.032Z,11.25
2022-11-17T16:07:36.688Z,12.95
2022-11-17T16:10:04.708Z,13.65
2022-11-17T16:12:32.167Z,13.70
2022-11-17T16:14:59.607Z,15.43
2022-11-17T16:17:27.418Z,17.23
2022-11-17T16:19:55.444Z,16.50
2022-11-17T16:22:22.936Z,14.35
2022-11-17T16:24:50.733Z,12.98
2022-11-17T16:27:18.296Z,12.57
2022-11-17T16:29:45.810Z,11.57
2022-11-17T16:32:13.527Z,11.52
2022-11-17T16:34:41.598Z,11.57
2022-11-17T16:37:09.226Z,21.90
2022-11-17T16:39:37.846Z,23.47
2022-11-17T16:42:05.953Z,26.02
2022-11-17T16:44:33.473Z,26.00
2022-11-17T16:47:01.456Z,25.25
2022-11-17T16:49:31.021Z,23.52
2022-11-17T16:51:58.476Z,21.10
2022-11-17T16:54:27.038Z,16.12
2022-11-17T16:56:54.583Z,15.93
2022-11-17T16:59:22.096Z,14.20
2022-11-17T17:01:50.104Z,13.13
2022-11-17T17:04:23.502Z,12.73
2022-11-17T17:06:51.303Z,12.18
2022-11-17T17:09:23.371Z,11.65
2022-11-17T17:11:55.290Z,12.30
2022-11-17T17:14:22.998Z,12.45
2022-11-17T17:16:50.963Z,14.77
2022-11-17T17:19:19.149Z,16.62
2022-11-17T17:21:46.876Z,17.00
2022-11-17T17:24:14.619Z,17.70
2022-11-17T17:26:42.597Z,19.27
2022-11-17T17:29:10.916Z,18.13
2022-11-17T17:31:40.645Z,16.20
2022-11-17T17:34:10.430Z,16.77
2022-11-17T17:36:38.631Z,15.95
2022-11-17T17:39:06.622Z,17.85
2022-11-17T17:41:38.738Z,21.87
2022-11-17T17:44:07.290Z,34.75
2022-11-17T17:46:38.611Z,34.22
2022-11-17T17:49:06.564Z,26.27
2022-11-17T17:51:37.678Z,25.73
2022-11-17T17:54:05.976Z,19.83
2022-11-17T17:56:34.433Z,25.88
2022-11-17T17:59:01.923Z,31.35
2022-11-17T18:01:35.542Z,29.27
2022-11-17T18:04:10.079Z,17.70
2022-11-17T18:06:41.598Z,18.63
2022-11-17T18:09:10.762Z,16.35
2022-11-17T18:11:45.737Z,17.40
2022-11-17T18:14:13.986Z,16.05
2022-11-17T18:16:41.658Z,13.88
2022-11-17T18:19:12.794Z,14.93
2022-11-17T18:21:40.901Z,15.25
2022-11-17T18:24:10.452Z,15.10
2022-11-17T18:26:38.762Z,15.00
2022-11-17T18:29:16.124Z,14.77
2022-11-17T18:31:46.772Z,14.67
2022-11-17T18:34:14.828Z,14.35
2022-11-17T18:36:42.551Z,13.68
2022-11-17T18:39:10.983Z,13.18
2022-11-17T18:41:39.001Z,14.38
2022-11-17T18:44:06.612Z,13.50
2022-11-17T18:46:34.632Z,14.05
2022-11-17T18:49:03.017Z,15.18
2022-11-17T18:51:31.970Z,13.70
2022-11-17T18:54:00.732Z,18.45
2022-11-17T18:56:33.246Z,23.53
2022-11-17T18:59:01.789Z,31.50
2022-11-17T19:01:30.786Z,23.50
2022-11-17T19:04:02.921Z,17.62
2022-11-17T19:06:31.132Z,15.05
2022-11-17T19:08:59.846Z,15.57
2022-11-17T19:11:30.214Z,13.82
2022-11-17T19:14:02.327Z,14.80
2022-11-17T19:16:30.614Z,15.48
2022-11-17T19:18:59.545Z,14.95
2022-11-17T19:21:30.459Z,13.97
2022-11-17T19:24:00.663Z,15.88
2022-11-17T19:26:30.459Z,14.55
2022-11-17T19:29:03.926Z,14.55
2022-11-17T19:31:32.399Z,15.98
2022-11-17T19:34:00.302Z,17.00
2022-11-17T19:36:29.882Z,19.80
2022-11-17T19:38:59.673Z,19.80
2022-11-17T19:41:30.874Z,17.65
2022-11-17T19:44:00.833Z,16.83
2022-11-17T19:46:29.800Z,16.60
2022-11-17T19:48:58.872Z,16.10
2022-11-17T19:51:29.448Z,17.42
2022-11-17T19:54:00.694Z,15.05
2022-11-17T19:56:29.502Z,16.20
2022-11-17T19:58:57.668Z,16.50
2022-11-17T20:01:27.704Z,16.20
2022-11-17T20:03:56.841Z,16.62
2022-11-17T20:06:27.518Z,15.02
2022-11-17T20:08:57.452Z,14.93
2022-11-17T20:11:27.375Z,16.90
2022-11-17T20:13:55.719Z,15.48
2022-11-17T20:16:25.374Z,16.98
2022-11-17T20:18:55.675Z,15.57
2022-11-17T20:21:24.901Z,15.15
2022-11-17T20:23:52.654Z,15.80
2022-11-17T20:26:22.873Z,14.87
2022-11-17T20:28:51.248Z,16.00
2022-11-17T20:31:21.381Z,15.07
2022-11-17T20:33:49.132Z,15.38
2022-11-17T20:36:19.277Z,15.50
2022-11-17T20:38:55.744Z,15.25
2022-11-17T20:41:24.337Z,16.95
2022-11-17T20:43:54.279Z,16.45
2022-11-17T20:46:22.718Z,17.42
2022-11-17T20:48:51.529Z,17.00
2022-11-17T20:51:21.012Z,17.10
2022-11-17T20:53:49.476Z,17.23
2022-11-17T20:56:17.705Z,17.35
2022-11-17T20:58:45.875Z,15.88
2022-11-17T21:01:19.685Z,16.50
2022-11-17T21:03:48.049Z,16.10
2022-11-17T21:06:16.208Z,16.60
2022-11-17T21:08:44.974Z,15.85
2022-11-17T21:11:35.024Z,17.62
2022-11-17T21:14:03.815Z,17.33
2022-11-17T21:16:31.874Z,16.65
2022-11-17T21:19:00.471Z,18.30
2022-11-17T21:21:28.051Z,17.35
2022-11-17T21:23:56.307Z,17.77
2022-11-17T21:26:24.020Z,17.30
2022-11-17T21:28:52.512Z,16.90
2022-11-17T21:31:23.775Z,17.27
2022-11-17T21:33:53.780Z,17.83
2022-11-17T21:36:22.996Z,18.62
2022-11-17T21:38:50.682Z,18.90
2022-11-17T21:41:26.670Z,17.67
2022-11-17T21:43:57.495Z,19.27
2022-11-17T21:46:28.152Z,16.62
2022-11-17T21:48:57.217Z,18.52
2022-11-17T21:51:26.876Z,17.53
2022-11-17T21:53:55.976Z,17.98
2022-11-17T21:56:26.684Z,18.60
2022-11-17T21:58:58.530Z,18.62
2022-11-17T22:01:27.759Z,16.73
2022-11-17T22:03:55.619Z,16.53
2022-11-17T22:06:24.406Z,18.42
2022-11-17T22:08:53.917Z,18.60
2022-11-17T22:11:37.198Z,18.17
2022-11-17T22:14:13.615Z,19.87
2022-11-17T22:16:44.982Z,22.50
2022-11-17T22:19:13.964Z,19.58
2022-11-17T22:21:42.497Z,18.55
2022-11-17T22:24:11.392Z,18.17
2022-11-17T22:26:41.167Z,16.87
2022-11-17T22:29:15.113Z,17.50
2022-11-17T22:31:43.249Z,17.08
2022-11-17T22:34:12.355Z,16.30
2022-11-17T22:36:39.944Z,17.75
2022-11-17T22:39:07.970Z,16.55
2022-11-17T22:41:35.666Z,17.87
2022-11-17T22:44:03.523Z,18.45
2022-11-17T22:46:31.099Z,16.45
2022-11-17T22:48:59.038Z,17.75
2022-11-17T22:51:45.157Z,19.10
2022-11-17T22:54:12.981Z,17.97
2022-11-17T22:56:40.485Z,18.50
2022-11-17T22:59:07.977Z,18.67
2022-11-17T23:01:35.802Z,17.95
2022-11-17T23:04:03.692Z,18.50
2022-11-17T23:06:31.231Z,17.90
2022-11-17T23:08:59.071Z,17.48
2022-11-17T23:11:42.179Z,17.15
2022-11-17T23:14:12.255Z,17.58
2022-11-17T23:16:39.976Z,17.30
2022-11-17T23:19:09.556Z,17.33
2022-11-17T23:21:37.367Z,16.30
2022-11-17T23:24:05.143Z,16.90
2022-11-17T23:26:32.670Z,16.50
2022-11-17T23:29:00.484Z,16.23
2022-11-17T23:31:28.202Z,17.33
2022-11-17T23:33:55.638Z,18.10
2022-11-17T23:36:23.810Z,16.15
2022-11-17T23:38:51.997Z,18.42
2022-11-17T23:41:20.492Z,18.23
2022-11-17T23:43:53.069Z,18.57
2022-11-17T23:46:22.637Z,18.98
2022-11-17T23:48:50.503Z,18.90
2022-11-17T23:51:20.600Z,18.27
2022-11-17T23:53:49.457Z,17.77
2022-11-17T23:56:19.233Z,17.00
2022-11-17T23:58:46.731Z,17.95
